Time;durP1;ratioP1;P1;durP2;ratioP2;P2;SDS_P1;SDS_P2;PMS_P1;PMS_P2;Temp;Humidity;BMP_temperature;BMP_pressure;BME280_temperature;BME280_humidity;BME280_pressure;Samples;Min_cycle;Max_cycle;Signal;HPM_P1;HPM_P2
2022/05/15 00:02:24;;;;;;;24.83;8.32;;;;;;;13.61;66.43;101941.94;5094252;28;20037;-88
2022/05/15 00:04:52;;;;;;;28.05;8.50;;;;;;;13.58;66.88;101944.75;5110112;28;20479;-88
2022/05/15 00:07:18;;;;;;;25.65;8.02;;;;;;;13.53;66.50;101941.59;5101831;28;20031;-88
2022/05/15 00:09:43;;;;;;;27.92;8.23;;;;;;;13.51;66.98;101943.50;5109962;28;20020;-89
2022/05/15 00:12:09;;;;;;;26.45;8.25;;;;;;;13.47;66.82;101947.28;5088309;28;20028;-89
2022/05/15 00:14:35;;;;;;;24.20;8.35;;;;;;;13.43;67.17;101948.47;5074763;28;20012;-89
2022/05/15 00:17:00;;;;;;;23.77;7.78;;;;;;;13.40;66.97;101940.75;5099038;28;20492;-89
2022/05/15 00:19:27;;;;;;;28.63;8.75;;;;;;;13.37;67.16;101941.78;5106098;28;20081;-89
2022/05/15 00:21:52;;;;;;;29.38;8.82;;;;;;;13.35;67.03;101940.22;5090708;28;20368;-88
2022/05/15 00:24:18;;;;;;;22.65;8.10;;;;;;;13.34;67.01;101941.16;5090318;28;20024;-88
2022/05/15 00:26:43;;;;;;;26.42;8.07;;;;;;;13.32;67.44;101935.97;5091105;28;20023;-88
2022/05/15 00:29:08;;;;;;;26.08;8.25;;;;;;;13.33;67.20;101939.47;5098548;28;20536;-89
2022/05/15 00:31:34;;;;;;;30.02;8.02;;;;;;;13.28;67.41;101933.66;5090457;28;20023;-88
2022/05/15 00:33:59;;;;;;;23.70;7.95;;;;;;;13.27;67.14;101932.81;5088099;28;20207;-88
2022/05/15 00:36:25;;;;;;;24.55;7.35;;;;;;;13.29;66.98;101928.25;5110885;28;20068;-88
2022/05/15 00:38:50;;;;;;;26.00;7.63;;;;;;;13.29;66.89;101935.34;5108456;28;20034;-88
2022/05/15 00:41:15;;;;;;;26.17;8.10;;;;;;;13.29;66.96;101932.69;5076122;28;20161;-88
2022/05/15 00:43:43;;;;;;;24.33;7.55;;;;;;;13.28;66.91;101931.00;5110843;28;20032;-89
2022/05/15 00:46:19;;;;;;;26.70;7.90;;;;;;;13.25;67.08;101928.56;5090116;28;20067;-88
2022/05/15 00:48:45;;;;;;;25.65;7.97;;;;;;;13.24;67.07;101925.09;5086790;28;20036;-90
2022/05/15 00:51:17;;;;;;;25.05;8.00;;;;;;;13.24;66.87;101934.81;5104274;28;20514;-90
2022/05/15 00:53:43;;;;;;;26.27;7.78;;;;;;;13.23;67.00;101927.84;5097535;28;20064;-89
2022/05/15 00:56:10;;;;;;;28.90;8.25;;;;;;;13.20;67.04;101925.38;5081713;28;20115;-89
2022/05/15 00:58:39;;;;;;;22.85;8.18;;;;;;;13.15;66.93;101926.50;5101494;28;20106;-89
2022/05/15 01:01:06;;;;;;;32.17;8.18;;;;;;;13.13;67.43;101917.84;5075022;28;20024;-90
2022/05/15 01:03:31;;;;;;;28.50;8.13;;;;;;;13.12;67.19;101920.56;5081071;28;20043;-90
2022/05/15 01:05:57;;;;;;;23.45;7.43;;;;;;;13.09;67.57;101931.34;5084394;28;20031;-88
2022/05/15 01:08:27;;;;;;;28.15;8.05;;;;;;;13.08;67.35;101927.88;5098784;28;20291;-88
2022/05/15 01:10:56;;;;;;;25.88;8.38;;;;;;;13.06;67.38;101932.41;5101333;28;20019;-90
2022/05/15 01:13:24;;;;;;;27.30;8.20;;;;;;;13.00;67.61;101927.53;5097285;28;20028;-88
2022/05/15 01:15:49;;;;;;;24.83;9.07;;;;;;;12.98;67.95;101924.16;5098503;28;20458;-88
2022/05/15 01:18:24;;;;;;;28.23;8.00;;;;;;;12.94;67.64;101937.69;5081246;28;20055;-88
2022/05/15 01:20:56;;;;;;;25.30;7.90;;;;;;;12.88;67.93;101928.38;5101932;28;20032;-89
2022/05/15 01:23:22;;;;;;;29.30;8.20;;;;;;;12.85;67.89;101928.56;5081951;28;20034;-89
2022/05/15 01:25:47;;;;;;;27.92;8.07;;;;;;;12.82;68.33;101926.97;5098370;28;20036;-89
2022/05/15 01:28:17;;;;;;;32.38;8.13;;;;;;;12.78;68.72;101933.38;5098782;28;20115;-90
2022/05/15 01:30:46;;;;;;;32.10;8.65;;;;;;;12.74;68.43;101926.63;5081211;28;20552;-90
2022/05/15 01:33:12;;;;;;;23.13;7.75;;;;;;;12.74;68.82;101931.06;5057208;28;20032;-90
2022/05/15 01:35:38;;;;;;;28.92;8.38;;;;;;;12.70;68.59;101934.84;5098301;28;20035;-88
2022/05/15 01:38:04;;;;;;;26.33;8.18;;;;;;;12.70;68.85;101932.19;5103568;28;20051;-88
2022/05/15 01:40:31;;;;;;;26.65;9.00;;;;;;;12.63;69.21;101929.13;5083705;28;20040;-88
2022/05/15 01:42:56;;;;;;;23.58;8.02;;;;;;;12.63;69.45;101928.28;5082651;28;20456;-88
2022/05/15 01:45:22;;;;;;;28.33;7.88;;;;;;;12.60;68.88;101925.84;5080255;28;20115;-88
2022/05/15 01:47:49;;;;;;;29.00;8.40;;;;;;;12.57;69.17;101928.69;5101304;28;20415;-88
2022/05/15 01:50:15;;;;;;;30.25;8.38;;;;;;;12.51;69.46;101922.84;5086957;28;20032;-88
2022/05/15 01:52:41;;;;;;;27.83;8.25;;;;;;;12.49;69.66;101927.38;5090657;28;20043;-89
2022/05/15 01:55:07;;;;;;;24.13;8.60;;;;;;;12.48;69.41;101928.34;5093612;28;20030;-88
2022/05/15 01:57:33;;;;;;;25.98;8.70;;;;;;;12.46;69.63;101929.38;5082682;28;20484;-88
2022/05/15 01:59:58;;;;;;;32.00;8.52;;;;;;;12.40;69.74;101922.69;5079139;28;20078;-90
2022/05/15 02:02:23;;;;;;;27.30;8.13;;;;;;;12.37;70.28;101922.88;5096997;28;20213;-90
2022/05/15 02:04:49;;;;;;;24.23;7.70;;;;;;;12.35;70.45;101919.50;5091376;28;20480;-89
2022/05/15 02:07:14;;;;;;;27.17;7.80;;;;;;;12.33;70.11;101916.09;5081479;28;20140;-89
2022/05/15 02:09:40;;;;;;;26.85;8.13;;;;;;;12.29;70.55;101914.59;5106107;28;20028;-89
2022/05/15 02:12:06;;;;;;;36.95;8.82;;;;;;;12.26;70.96;101917.44;5078529;28;20384;-89
2022/05/15 02:14:32;;;;;;;30.27;8.00;;;;;;;12.22;71.07;101913.31;5108362;28;20032;-89
2022/05/15 02:16:57;;;;;;;28.02;8.05;;;;;;;12.20;70.85;101909.94;5078850;28;20051;-89
2022/05/15 02:19:22;;;;;;;26.48;7.72;;;;;;;12.17;71.04;101907.47;5097267;28;20399;-88
2022/05/15 02:21:47;;;;;;;25.52;8.35;;;;;;;12.12;71.43;101904.28;5097349;28;20035;-88
2022/05/15 02:24:14;;;;;;;28.15;7.68;;;;;;;12.14;71.31;101915.59;5097199;28;20487;-88
2022/05/15 02:26:42;;;;;;;28.88;8.15;;;;;;;12.09;71.39;101912.41;5081732;28;20036;-88
2022/05/15 02:29:09;;;;;;;26.88;8.43;;;;;;;12.06;71.46;101909.97;5110123;28;20107;-88
2022/05/15 02:31:34;;;;;;;24.85;8.32;;;;;;;12.04;71.49;101912.69;5104454;28;20027;-88
2022/05/15 02:34:00;;;;;;;23.30;7.97;;;;;;;12.00;71.84;101911.16;5109634;28;20028;-88
2022/05/15 02:36:26;;;;;;;34.65;8.80;;;;;;;11.95;71.94;101902.69;5107373;28;20023;-88
2022/05/15 02:38:51;;;;;;;30.00;8.00;;;;;;;11.90;72.43;101913.53;5101998;28;20092;-87
2022/05/15 02:41:17;;;;;;;27.02;7.93;;;;;;;11.88;72.38;101909.31;5083252;28;20024;-87
2022/05/15 02:43:42;;;;;;;28.23;7.70;;;;;;;11.85;72.56;101905.06;5101265;28;20033;-87
2022/05/15 02:46:07;;;;;;;23.33;7.97;;;;;;;11.83;72.61;101906.13;5105870;28;20553;-88
2022/05/15 02:51:17;;;;;;;26.08;8.50;;;;;;;11.83;72.73;101898.22;5100998;28;20084;-88
2022/05/15 02:53:44;;;;;;;31.27;8.60;;;;;;;11.85;72.39;101907.72;5087036;28;20023;-88
2022/05/15 02:56:23;;;;;;;26.85;7.10;;;;;;;11.85;72.47;101902.44;5100795;28;20052;-88
2022/05/15 02:58:48;;;;;;;26.63;7.60;;;;;;;11.82;72.33;101892.09;5103329;28;20446;-88
2022/05/15 03:01:14;;;;;;;30.48;8.07;;;;;;;11.84;72.42;101898.09;5101125;28;20099;-88
2022/05/15 03:03:40;;;;;;;32.65;8.25;;;;;;;11.79;72.90;101888.78;5088259;28;20020;-88
2022/05/15 03:06:06;;;;;;;29.77;7.85;;;;;;;11.76;72.97;101889.81;5083012;28;20027;-88
2022/05/15 03:08:34;;;;;;;29.67;8.38;;;;;;;11.73;73.09;101894.41;5068170;28;20482;-89
2022/05/15 03:10:59;;;;;;;29.27;7.45;;;;;;;11.71;72.80;101891.88;5082928;28;20298;-88
2022/05/15 03:13:25;;;;;;;27.20;8.13;;;;;;;11.68;73.02;101892.06;5104112;28;20371;-87
2022/05/15 03:15:50;;;;;;;28.95;8.15;;;;;;;11.69;72.80;101893.75;5100668;28;20051;-87
2022/05/15 03:18:15;;;;;;;25.63;7.90;;;;;;;11.67;73.10;101895.66;5081871;28;20027;-87
2022/05/15 03:20:41;;;;;;;28.73;8.02;;;;;;;11.63;73.21;101888.88;5099139;28;20028;-88
2022/05/15 03:23:06;;;;;;;28.70;8.05;;;;;;;11.59;73.38;101892.63;5100585;28;20102;-88
2022/05/15 03:25:33;;;;;;;28.27;8.02;;;;;;;11.56;73.54;101890.16;5082456;28;20374;-89
2022/05/15 03:27:59;;;;;;;24.70;7.57;;;;;;;11.54;73.66;101890.25;5081081;28;20028;-88
2022/05/15 03:30:24;;;;;;;26.38;8.07;;;;;;;11.49;74.06;101886.22;5081824;28;20369;-88
2022/05/15 03:32:49;;;;;;;29.25;8.05;;;;;;;11.44;74.11;101890.94;5082070;28;20068;-88
2022/05/15 03:35:15;;;;;;;26.95;8.05;;;;;;;11.44;74.47;101890.94;5093244;28;20115;-89
2022/05/15 03:37:41;;;;;;;28.52;8.63;;;;;;;11.39;74.56;101891.22;5109922;28;20031;-88
2022/05/15 03:40:08;;;;;;;30.58;8.30;;;;;;;11.40;74.59;101892.06;5103204;28;20057;-88
2022/05/15 03:42:34;;;;;;;31.50;8.57;;;;;;;11.37;74.77;101886.97;5066072;28;20020;-88
2022/05/15 03:45:00;;;;;;;24.98;8.35;;;;;;;11.36;74.85;101882.66;5082111;28;20390;-88
2022/05/15 03:47:25;;;;;;;28.95;8.27;;;;;;;11.35;74.98;101884.44;5101215;28;20047;-87
2022/05/15 03:49:51;;;;;;;26.15;7.57;;;;;;;11.32;75.10;101889.91;5099313;28;20036;-87
2022/05/15 03:52:17;;;;;;;26.88;8.18;;;;;;;11.28;75.20;101883.97;5082548;28;20443;-87
2022/05/15 03:54:43;;;;;;;28.88;8.52;;;;;;;11.24;75.25;101881.59;5083065;28;20379;-87
2022/05/15 03:57:09;;;;;;;27.95;7.90;;;;;;;11.26;75.46;101879.72;5101662;28;20433;-87
2022/05/15 03:59:37;;;;;;;32.63;8.85;;;;;;;11.23;75.38;101880.75;5095783;28;20023;-87
2022/05/15 04:02:05;;;;;;;34.10;9.40;;;;;;;11.23;75.74;101879.91;5092380;28;20124;-88
2022/05/15 04:04:32;;;;;;;30.10;8.48;;;;;;;11.21;75.76;101881.78;5088916;28;20028;-87
2022/05/15 04:06:57;;;;;;;29.85;8.50;;;;;;;11.22;76.20;101884.34;5098737;28;20035;-87
2022/05/15 04:09:23;;;;;;;34.53;9.38;;;;;;;11.24;75.52;101887.72;5106247;28;20191;-87
2022/05/15 04:11:49;;;;;;;29.25;8.85;;;;;;;11.23;75.95;101890.44;5085793;28;20023;-86
2022/05/15 04:14:14;;;;;;;30.42;8.65;;;;;;;11.22;75.42;101889.59;5092662;28;20479;-88
2022/05/15 04:16:39;;;;;;;31.80;8.52;;;;;;;11.22;75.84;101896.66;5100383;28;20028;-87
2022/05/15 04:19:06;;;;;;;27.05;8.68;;;;;;;11.23;75.93;101901.84;5080032;28;20020;-88
2022/05/15 04:21:36;;;;;;;27.60;8.77;;;;;;;11.23;76.16;101896.56;5089747;28;20415;-88
2022/05/15 04:24:07;;;;;;;28.90;8.52;;;;;;;11.28;75.94;101899.78;5081188;28;20020;-88
2022/05/15 04:26:33;;;;;;;30.25;8.55;;;;;;;11.27;76.20;101905.13;5066245;28;20553;-89
2022/05/15 04:28:58;;;;;;;24.00;8.02;;;;;;;11.28;75.84;101897.13;5081127;28;20088;-88
2022/05/15 04:31:24;;;;;;;31.42;9.40;;;;;;;11.28;76.19;101898.91;5099028;28;20032;-88
2022/05/15 04:33:49;;;;;;;31.35;8.90;;;;;;;11.25;75.99;101899.09;5074535;28;20028;-88
2022/05/15 04:36:14;;;;;;;28.40;8.70;;;;;;;11.24;76.07;101897.41;5073770;28;20065;-88
2022/05/15 04:38:40;;;;;;;31.95;8.77;;;;;;;11.24;76.39;101895.63;5080864;28;20024;-88
2022/05/15 04:41:05;;;;;;;25.98;8.52;;;;;;;11.24;76.46;101885.09;5099942;28;20036;-88
2022/05/15 04:43:30;;;;;;;29.45;9.05;;;;;;;11.30;76.31;101892.63;5089364;28;20028;-87
2022/05/15 04:45:56;;;;;;;27.90;7.93;;;;;;;11.32;76.00;101889.91;5079217;28;20057;-88
2022/05/15 04:48:21;;;;;;;32.50;9.18;;;;;;;11.36;76.36;101890.56;5073865;28;20023;-88
2022/05/15 04:50:47;;;;;;;31.55;8.93;;;;;;;11.40;75.94;101886.78;5088392;28;20050;-88
2022/05/15 04:53:12;;;;;;;28.90;8.75;;;;;;;11.42;75.78;101896.28;5111859;28;20058;-88
2022/05/15 04:55:37;;;;;;;28.92;8.88;;;;;;;11.48;75.78;101889.78;5078352;28;20034;-87
2022/05/15 04:58:04;;;;;;;33.75;9.20;;;;;;;11.49;75.76;101886.22;5102582;28;20030;-86
2022/05/15 05:00:29;;;;;;;31.60;9.05;;;;;;;11.53;75.79;101887.72;5106260;28;20028;-86
2022/05/15 05:02:54;;;;;;;28.55;9.27;;;;;;;11.56;75.60;101895.44;5097922;28;20087;-87
2022/05/15 05:05:20;;;;;;;29.52;8.73;;;;;;;11.60;75.99;101896.94;5108870;28;20011;-87
2022/05/15 05:07:45;;;;;;;25.42;8.73;;;;;;;11.65;75.79;101900.16;5083889;28;20037;-87
2022/05/15 05:10:12;;;;;;;32.35;9.43;;;;;;;11.68;75.30;101894.72;5077107;28;20441;-87
2022/05/15 05:12:38;;;;;;;36.28;9.70;;;;;;;11.70;76.01;101894.63;5082034;28;20023;-88
2022/05/15 05:15:05;;;;;;;27.70;9.20;;;;;;;11.77;75.40;101907.31;5084367;28;20391;-88
2022/05/15 05:17:30;;;;;;;28.50;8.88;;;;;;;11.82;75.54;101902.63;5125755;28;20079;-85
2022/05/15 05:19:55;;;;;;;28.95;8.85;;;;;;;11.89;75.65;101903.09;5093314;28;20039;-86
2022/05/15 05:22:21;;;;;;;30.92;9.65;;;;;;;11.92;75.47;101900.25;5123818;28;20027;-86
2022/05/15 05:24:46;;;;;;;28.65;9.40;;;;;;;12.00;75.43;101899.78;5105973;28;20024;-88
2022/05/15 05:27:12;;;;;;;35.53;9.93;;;;;;;12.05;75.08;101901.22;5091353;28;20088;-87
2022/05/15 05:29:37;;;;;;;31.52;9.10;;;;;;;12.11;75.19;101894.69;5100080;28;20115;-86
2022/05/15 05:32:03;;;;;;;32.78;10.20;;;;;;;12.21;74.89;101898.44;5095383;28;20039;-87
2022/05/15 05:34:29;;;;;;;25.60;9.82;;;;;;;12.30;74.75;101892.56;5080269;28;20396;-87
2022/05/15 05:36:54;;;;;;;27.10;9.93;;;;;;;12.39;74.42;101899.88;5101585;28;20023;-87
2022/05/15 05:39:20;;;;;;;24.95;9.57;;;;;;;12.47;73.89;101897.59;5094087;28;20104;-87
2022/05/15 05:41:46;;;;;;;27.52;9.35;;;;;;;12.55;74.03;101899.75;5079947;28;20028;-87
2022/05/15 05:44:11;;;;;;;27.35;9.73;;;;;;;12.67;73.11;101904.19;5080200;28;20150;-87
2022/05/15 05:46:37;;;;;;;26.63;9.93;;;;;;;12.77;73.66;101899.16;5099361;28;20043;-88
2022/05/15 05:49:02;;;;;;;24.73;9.57;;;;;;;12.88;72.81;101895.81;5101629;28;20023;-88
2022/05/15 05:51:28;;;;;;;23.50;9.25;;;;;;;13.00;73.18;101895.84;5082881;28;20329;-88
2022/05/15 05:53:54;;;;;;;26.35;9.45;;;;;;;13.10;72.98;101902.19;5080373;28;20030;-88
2022/05/15 05:56:19;;;;;;;24.85;9.65;;;;;;;13.21;72.10;101893.59;5080656;28;20016;-89
2022/05/15 05:58:45;;;;;;;25.17;9.88;;;;;;;13.33;71.46;101902.47;5080654;28;20024;-88
2022/05/15 06:01:10;;;;;;;25.40;9.75;;;;;;;13.43;70.61;101893.78;5085749;28;20027;-88
2022/05/15 06:06:20;;;;;;;26.58;9.57;;;;;;;13.66;70.86;101892.19;5105108;28;20066;-89
2022/05/15 06:08:45;;;;;;;25.48;9.18;;;;;;;13.80;69.89;101892.06;5091345;28;20015;-88
2022/05/15 06:11:12;;;;;;;26.42;10.25;;;;;;;13.93;69.13;101893.81;5104003;28;20035;-89
2022/05/15 06:13:39;;;;;;;24.58;10.20;;;;;;;14.03;69.05;101886.94;5084644;28;20020;-88
2022/05/15 06:16:06;;;;;;;23.63;9.98;;;;;;;14.17;68.78;101889.44;5101966;28;20039;-88
2022/05/15 06:18:32;;;;;;;24.15;10.23;;;;;;;14.29;67.94;101896.47;5079984;28;20019;-89
2022/05/15 06:20:57;;;;;;;24.95;9.88;;;;;;;14.40;67.44;101888.59;5105436;28;20035;-88
2022/05/15 06:23:23;;;;;;;24.15;10.75;;;;;;;14.49;67.37;101881.81;5096101;28;20032;-89
2022/05/15 06:25:48;;;;;;;24.77;10.93;;;;;;;14.62;67.15;101884.41;5105619;28;20106;-89
2022/05/15 06:28:13;;;;;;;28.00;10.52;;;;;;;14.75;66.98;101893.09;5086087;28;20084;-88
2022/05/15 06:30:39;;;;;;;26.50;10.30;;;;;;;14.85;66.32;101888.00;5093384;28;20022;-88
2022/05/15 06:33:06;;;;;;;20.92;10.55;;;;;;;14.95;65.95;101891.63;5105517;28;20094;-88
2022/05/15 06:35:32;;;;;;;27.00;10.25;;;;;;;15.05;65.61;101880.19;5103951;28;20023;-89
2022/05/15 06:38:02;;;;;;;21.48;9.82;;;;;;;15.17;65.19;101886.38;5104106;28;20027;-88
2022/05/15 06:40:28;;;;;;;25.20;10.48;;;;;;;15.28;64.45;101889.06;5069317;28;20104;-87
2022/05/15 06:42:54;;;;;;;28.65;11.55;;;;;;;15.35;64.87;101882.31;5096644;28;20768;-88
2022/05/15 06:45:19;;;;;;;26.75;10.68;;;;;;;15.43;64.23;101884.38;5103720;28;20047;-88
2022/05/15 06:47:44;;;;;;;29.00;10.50;;;;;;;15.54;64.45;101884.38;5102919;28;20023;-87
2022/05/15 06:50:11;;;;;;;23.02;10.95;;;;;;;15.68;63.87;101885.13;5087188;28;20067;-88
2022/05/15 06:52:37;;;;;;;25.55;10.57;;;;;;;15.84;62.94;101888.25;5085219;28;20330;-85
2022/05/15 06:55:14;;;;;;;25.45;11.07;;;;;;;16.05;63.08;101883.91;5086376;28;20019;-88
2022/05/15 06:57:43;;;;;;;22.20;10.18;;;;;;;16.29;61.21;101883.72;5102965;28;20040;-88
2022/05/15 07:00:13;;;;;;;22.83;10.38;;;;;;;16.57;61.06;101885.78;5093795;28;20487;-89
2022/05/15 07:02:40;;;;;;;22.45;10.48;;;;;;;16.88;60.38;101884.13;5100944;28;20032;-89
2022/05/15 07:05:07;;;;;;;22.15;10.10;;;;;;;17.14;59.82;101889.88;5085136;28;20028;-89
2022/05/15 07:07:32;;;;;;;21.80;9.75;;;;;;;17.39;59.56;101891.28;5103948;28;20429;-88
2022/05/15 07:09:57;;;;;;;20.75;9.13;;;;;;;17.59;57.86;101884.22;5099420;28;20039;-88
2022/05/15 07:12:26;;;;;;;20.58;9.27;;;;;;;17.74;57.07;101892.75;5092477;28;20024;-88
2022/05/15 07:14:51;;;;;;;19.48;9.98;;;;;;;17.85;56.93;101896.16;5084163;28;20023;-89
2022/05/15 07:17:17;;;;;;;22.27;9.07;;;;;;;17.99;57.00;101886.94;5105163;28;20023;-89
2022/05/15 07:19:42;;;;;;;17.95;9.13;;;;;;;18.22;55.84;101886.72;5085183;28;20031;-90
2022/05/15 07:22:09;;;;;;;21.15;9.32;;;;;;;18.36;55.16;101888.97;5082727;28;20480;-89
2022/05/15 07:24:38;;;;;;;19.38;8.98;;;;;;;18.76;55.28;101892.38;5082585;28;20546;-89
2022/05/15 07:27:08;;;;;;;15.55;8.00;;;;;;;19.14;54.34;101895.16;5083444;28;20035;-88
2022/05/15 07:29:36;;;;;;;20.27;9.13;;;;;;;19.37;52.46;101886.69;5088047;28;20032;-88
2022/05/15 07:32:06;;;;;;;19.17;8.13;;;;;;;19.66;51.80;101891.13;5109604;28;20023;-88
2022/05/15 07:34:32;;;;;;;19.42;8.43;;;;;;;20.01;51.17;101880.53;5105842;28;20491;-89
2022/05/15 07:36:58;;;;;;;19.23;9.05;;;;;;;20.30;50.27;101880.31;5067431;28;20083;-89
2022/05/15 07:39:23;;;;;;;23.70;8.73;;;;;;;20.67;49.47;101881.22;5082526;28;20030;-89
2022/05/15 07:41:49;;;;;;;19.58;7.93;;;;;;;20.82;48.96;101879.69;5082651;28;20023;-88
2022/05/15 07:44:15;;;;;;;17.33;8.75;;;;;;;20.96;48.28;101881.78;5078146;28;20503;-89
2022/05/15 07:46:40;;;;;;;20.80;8.60;;;;;;;21.14;47.55;101874.53;5100845;27;20391;-89
2022/05/15 07:49:07;;;;;;;14.40;8.32;;;;;;;21.48;45.65;101876.47;5096554;28;20028;-89
2022/05/15 07:51:32;;;;;;;20.92;8.07;;;;;;;21.74;44.97;101877.25;5069201;28;20039;-88
2022/05/15 07:53:59;;;;;;;18.67;8.30;;;;;;;22.02;44.57;101864.47;5079965;28;20437;-89
2022/05/15 07:56:25;;;;;;;17.67;8.35;;;;;;;22.25;44.15;101870.06;5106011;28;20028;-86
2022/05/15 07:58:50;;;;;;;18.05;8.45;;;;;;;22.41;43.57;101867.41;5080187;28;20024;-87
2022/05/15 08:01:15;;;;;;;17.50;7.82;;;;;;;22.75;43.79;101863.75;5103278;28;20031;-87
2022/05/15 08:03:44;;;;;;;18.50;7.40;;;;;;;22.94;42.40;101866.13;5088927;28;20082;-88
2022/05/15 08:08:57;;;;;;;20.08;8.27;;;;;;;23.44;41.14;101862.31;5100457;28;20047;-88
2022/05/15 08:11:26;;;;;;;20.73;7.97;;;;;;;23.64;41.44;101857.41;5083577;28;20023;-87
2022/05/15 08:13:52;;;;;;;17.85;7.75;;;;;;;23.50;41.13;101858.94;5102411;28;20026;-89
2022/05/15 08:16:17;;;;;;;15.25;7.72;;;;;;;23.72;40.64;101852.84;5082715;28;20093;-88
2022/05/15 08:24:48;;;;;;;16.63;7.95;;;;;;;24.19;41.45;101835.75;5101608;28;20035;-88
2022/05/15 08:27:14;;;;;;;16.88;8.10;;;;;;;24.16;39.16;101829.91;5101695;28;20027;-88
2022/05/15 08:29:42;;;;;;;16.25;7.35;;;;;;;24.37;39.23;101839.00;5094055;28;20614;-88
2022/05/15 08:32:08;;;;;;;13.05;7.40;;;;;;;24.23;39.21;101828.19;5095673;28;20024;-88
2022/05/15 08:34:34;;;;;;;13.48;7.25;;;;;;;24.18;39.03;101827.88;5076395;28;20020;-88
2022/05/15 08:37:00;;;;;;;13.80;7.57;;;;;;;24.15;38.04;101823.69;5081976;28;20024;-88
2022/05/15 08:39:27;;;;;;;18.00;7.53;;;;;;;24.17;37.33;101823.50;5102090;28;20065;-88
2022/05/15 08:41:54;;;;;;;13.48;6.57;;;;;;;24.29;38.89;101814.88;5098429;28;20023;-88
2022/05/15 08:44:29;;;;;;;12.23;6.47;;;;;;;24.48;38.82;101815.41;5085440;28;20395;-87
2022/05/15 08:47:22;;;;;;;15.48;6.70;;;;;;;24.76;38.59;101821.88;5087174;28;20055;-87
2022/05/15 08:49:52;;;;;;;;;;;;;;;25.07;39.37;101819.06;5098147;28;20023;-87
2022/05/15 08:52:26;;;;;;;14.20;7.18;;;;;;;24.91;36.67;101811.97;5101336;28;19918;-87
2022/05/15 08:55:15;;;;;;;15.73;7.18;;;;;;;25.07;36.60;101807.47;5097527;28;20073;-87
2022/05/15 08:57:59;;;;;;;16.42;7.90;;;;;;;24.90;37.30;101813.00;5098403;28;20035;-87
2022/05/15 09:00:42;;;;;;;17.35;7.00;;;;;;;24.79;35.79;101809.91;5100010;28;20031;-88
2022/05/15 09:03:24;;;;;;;13.35;7.55;;;;;;;24.76;36.49;101808.41;5083410;28;20483;-87
2022/05/15 09:05:54;;;;;;;14.32;7.10;;;;;;;24.84;36.12;101805.66;5105407;28;20380;-87
2022/05/15 09:08:37;;;;;;;14.93;6.85;;;;;;;24.95;34.78;101815.97;5085880;28;20032;-86
2022/05/15 09:11:09;;;;;;;12.43;6.70;;;;;;;25.08;34.67;101798.38;5077845;28;20066;-87
2022/05/15 09:13:46;;;;;;;16.30;6.80;;;;;;;25.04;34.69;101811.38;5086915;28;20458;-87
2022/05/15 09:16:24;;;;;;;12.63;5.97;;;;;;;24.93;33.69;101809.94;5101936;28;20804;-87
2022/05/15 09:18:50;;;;;;;11.90;5.40;;;;;;;24.78;32.88;101808.22;5081761;28;20406;-86
2022/05/15 09:21:19;;;;;;;10.40;4.88;;;;;;;24.87;33.21;101808.00;5099975;28;20019;-87
2022/05/15 09:23:53;;;;;;;13.27;5.50;;;;;;;25.10;34.31;101804.41;5083051;28;20451;-87
2022/05/15 09:26:41;;;;;;;13.20;5.80;;;;;;;25.35;34.21;101795.03;5097655;28;20141;-87
2022/05/15 09:29:16;;;;;;;13.75;6.20;;;;;;;25.51;33.29;101800.19;5088378;28;20028;-86
2022/05/15 09:31:42;;;;;;;10.88;5.40;;;;;;;25.57;33.14;101794.03;5097623;28;20062;-86
2022/05/15 09:34:20;;;;;;;17.10;6.47;;;;;;;25.54;35.02;101793.59;5097321;28;20024;-86
2022/05/15 09:36:46;;;;;;;12.68;5.30;;;;;;;25.48;32.54;101787.09;5086195;28;20031;-87
2022/05/15 09:39:27;;;;;;;18.13;5.25;;;;;;;25.44;32.36;101783.09;5102113;28;20019;-87
2022/05/15 09:45:07;;;;;;;13.57;5.35;;;;;;;25.02;32.93;101782.94;5099151;28;20418;-87
2022/05/15 09:47:40;;;;;;;13.65;4.90;;;;;;;25.02;32.73;101782.94;5083877;28;20051;-87
2022/05/15 09:50:10;;;;;;;12.10;5.60;;;;;;;24.55;32.07;101782.22;5104595;28;20676;-89
2022/05/15 09:52:39;;;;;;;15.15;5.05;;;;;;;24.76;33.13;101778.78;5079338;28;20031;-88
2022/05/15 09:55:15;;;;;;;11.60;4.90;;;;;;;24.98;32.04;101777.94;5086137;28;20020;-88
2022/05/15 09:57:54;;;;;;;11.07;4.47;;;;;;;25.28;32.50;101772.53;5069282;28;20032;-88
2022/05/15 10:00:22;;;;;;;8.85;4.18;;;;;;;25.26;31.03;101774.59;5099872;28;20034;-87
2022/05/15 10:02:51;;;;;;;11.07;4.72;;;;;;;25.27;30.65;101776.25;5100251;28;20097;-88
2022/05/15 10:05:20;;;;;;;15.38;4.30;;;;;;;25.47;31.87;101771.94;5085176;28;20020;-88
2022/05/15 10:07:50;;;;;;;9.95;4.10;;;;;;;25.68;31.21;101776.59;5082323;28;20541;-87
2022/05/15 10:10:16;;;;;;;10.93;3.83;;;;;;;25.85;30.13;101769.09;5098902;28;20032;-88
2022/05/15 10:12:44;;;;;;;12.77;4.20;;;;;;;26.01;29.37;101779.63;5086477;28;20031;-88
2022/05/15 10:15:10;;;;;;;11.57;4.28;;;;;;;26.09;28.00;101766.03;5100251;28;20035;-88
2022/05/15 10:17:44;;;;;;;9.63;3.45;;;;;;;26.08;28.83;101761.66;5080162;28;20476;-87
2022/05/15 10:20:20;;;;;;;9.68;3.80;;;;;;;26.07;28.43;101756.47;5103148;28;20028;-88
2022/05/15 10:22:58;;;;;;;15.27;4.13;;;;;;;26.05;28.02;101763.91;5071267;28;20030;-87
2022/05/15 10:25:35;;;;;;;7.82;3.47;;;;;;;25.91;28.56;101763.75;5084943;28;20028;-89
2022/05/15 10:28:27;;;;;;;9.57;3.90;;;;;;;26.08;28.23;101758.97;5090165;28;20045;-88
2022/05/15 10:30:58;;;;;;;11.15;3.80;;;;;;;25.92;27.86;101762.75;5081149;28;20123;-90
2022/05/15 10:33:24;;;;;;;10.90;3.80;;;;;;;25.94;28.19;101749.06;5093301;28;20049;-89
2022/05/15 10:36:17;;;;;;;9.82;3.40;;;;;;;26.23;28.64;101740.84;5107551;28;20111;-88
2022/05/15 10:38:58;;;;;;;10.05;3.72;;;;;;;26.52;27.96;101747.97;5081224;28;20024;-87
2022/05/15 10:41:37;;;;;;;7.53;3.70;;;;;;;26.60;27.18;101746.97;5099863;28;20360;-89
2022/05/15 10:44:02;;;;;;;9.25;4.10;;;;;;;26.49;26.68;101739.41;5079556;28;20483;-88
2022/05/15 10:46:48;;;;;;;9.57;4.07;;;;;;;26.20;27.89;101735.81;5098934;28;20062;-89
2022/05/15 10:49:20;;;;;;;9.93;4.63;;;;;;;25.96;28.47;101728.13;5083947;28;20289;-88
2022/05/15 10:51:48;;;;;;;9.25;4.40;;;;;;;26.01;28.70;101728.38;5103550;28;20529;-88
2022/05/15 10:57:36;;;;;;;9.18;3.58;;;;;;;26.17;28.54;101730.81;5101422;28;20111;-88
2022/05/15 11:00:19;;;;;;;12.73;4.80;;;;;;;25.92;28.36;101737.63;5102139;28;20055;-89
2022/05/15 11:03:11;;;;;;;10.55;3.55;;;;;;;25.96;29.50;101728.13;5104316;28;20027;-89
2022/05/15 11:05:55;;;;;;;11.23;4.13;;;;;;;26.29;28.42;101733.81;5080734;28;20020;-86
2022/05/15 11:08:39;;;;;;;10.75;3.80;;;;;;;26.60;28.55;101735.34;5083881;28;20297;-89
2022/05/15 11:11:16;;;;;;;8.73;4.03;;;;;;;26.68;27.18;101733.31;5102109;28;20472;-86
2022/05/15 11:14:06;;;;;;;10.65;3.60;;;;;;;26.88;28.23;101729.91;5083677;28;20023;-88
2022/05/15 11:16:31;;;;;;;11.65;3.63;;;;;;;26.97;26.80;101720.59;5082583;28;20027;-87
2022/05/15 11:19:19;;;;;;;9.25;3.95;;;;;;;26.99;26.92;101718.56;5085482;28;20119;-87
2022/05/15 11:22:00;;;;;;;8.07;3.70;;;;;;;27.11;27.62;101700.75;5102945;28;20536;-86
2022/05/15 11:24:50;;;;;;;12.35;3.80;;;;;;;27.07;28.24;101708.41;5099772;28;20024;-86
2022/05/15 11:27:20;;;;;;;8.55;3.10;;;;;;;27.02;28.80;101701.97;5101574;28;20177;-87
2022/05/15 11:29:53;;;;;;;13.25;3.60;;;;;;;26.97;26.83;101696.28;5105251;28;20374;-91
2022/05/15 11:32:33;;;;;;;7.45;3.45;;;;;;;26.93;27.17;101686.94;5105707;28;20106;-88
2022/05/15 11:35:08;;;;;;;10.63;3.65;;;;;;;27.10;26.18;101677.47;5099507;28;20032;-89
2022/05/15 11:37:36;;;;;;;10.88;3.40;;;;;;;27.23;26.00;101677.53;5076736;28;20043;-89
2022/05/15 11:40:02;;;;;;;11.60;3.13;;;;;;;27.40;25.98;101689.63;5100238;28;20035;-85
2022/05/15 11:42:28;;;;;;;8.10;3.67;;;;;;;27.32;26.43;101676.31;5107720;28;20468;-85
2022/05/15 11:44:53;;;;;;;8.57;3.33;;;;;;;27.33;26.16;101672.56;5103702;28;20044;-88